createdAt,value
2023-06-10T00:08:23.439Z,29.8
2023-06-10T00:18:24.379Z,26.7
2023-06-10T00:28:26.255Z,29.7
2023-06-10T00:38:28.179Z,31.7
2023-06-10T00:48:30.116Z,30.6
2023-06-10T00:58:31.866Z,33.4
2023-06-10T01:08:33.660Z,25.2
2023-06-10T01:18:35.433Z,25.7
2023-06-10T01:28:37.263Z,29.7
2023-06-10T01:38:38.925Z,25.1
2023-06-10T01:48:40.680Z,35.7
2023-06-10T01:58:42.379Z,34.1
2023-06-10T02:08:45.041Z,42.5
2023-06-10T02:18:45.674Z,44
2023-06-10T02:28:47.374Z,31.5
2023-06-10T02:38:49.051Z,36.1
2023-06-10T02:48:50.686Z,34.6
2023-06-10T02:58:52.287Z,35.9
2023-06-10T03:08:53.904Z,41.9
2023-06-10T03:18:55.540Z,40.2
2023-06-10T03:28:57.259Z,39.1
2023-06-10T03:38:58.900Z,51.2
2023-06-10T03:49:00.529Z,44.6
2023-06-10T03:59:02.166Z,44.8
2023-06-10T04:09:03.847Z,47.1
2023-06-10T04:19:05.481Z,42.3
2023-06-10T04:29:07.137Z,41.9
2023-06-10T04:39:08.789Z,52.3
2023-06-10T04:49:10.399Z,45.5
2023-06-10T04:59:12.019Z,43.5
2023-06-10T05:09:13.587Z,45.3
2023-06-10T05:19:15.138Z,45.5
2023-06-10T05:29:16.721Z,46
2023-06-10T05:39:18.242Z,45.8
2023-06-10T05:49:19.865Z,54.4
2023-06-10T05:59:21.367Z,44.6
2023-06-10T06:09:22.974Z,45.3
2023-06-10T06:19:24.528Z,49.5
2023-06-10T06:29:26.026Z,48.4
2023-06-10T06:39:28.986Z,49.6
2023-06-10T06:49:29.006Z,57.3
2023-06-10T06:59:30.526Z,58.3
2023-06-10T07:09:32.084Z,55.6
2023-06-10T07:19:33.531Z,66.8
2023-06-10T07:29:35.117Z,56.2
2023-06-10T07:39:36.633Z,60.3
2023-06-10T07:49:38.069Z,61.8
2023-06-10T07:59:39.574Z,55.8
2023-06-10T08:09:40.933Z,53.4
2023-06-10T08:19:42.427Z,59.2
2023-06-10T08:29:43.778Z,61.8
2023-06-10T08:39:45.176Z,71.4
2023-06-10T08:49:46.718Z,75.2
2023-06-10T08:59:48.128Z,56.9
2023-06-10T09:09:49.567Z,63.5
2023-06-10T09:19:51.049Z,59.8
2023-06-10T09:29:52.605Z,52.3
2023-06-10T09:39:54.049Z,50
2023-06-10T09:49:55.537Z,46.1
2023-06-10T09:59:56.939Z,53.1
2023-06-10T10:09:58.394Z,51.2
2023-06-10T10:19:59.874Z,52.1
2023-06-10T10:30:01.364Z,57.2
2023-06-10T10:40:02.925Z,51.2
2023-06-10T10:50:04.430Z,48.8
2023-06-10T11:00:06.186Z,54.6
2023-06-10T11:10:07.468Z,57.9
2023-06-10T11:20:08.990Z,65
2023-06-10T11:30:10.541Z,51.2
2023-06-10T11:40:12.059Z,46.1
2023-06-10T11:50:13.567Z,36.4
2023-06-10T12:00:15.212Z,35.2
2023-06-10T12:10:26.696Z,37.4
2023-06-10T12:20:18.595Z,35.1
2023-06-10T12:30:20.529Z,33.3
2023-06-10T12:40:22.889Z,33.3
2023-06-10T12:50:25.804Z,24.6
2023-06-10T13:00:28.698Z,22.6
2023-06-10T13:10:31.838Z,21.9
2023-06-10T13:20:35.245Z,18.2
2023-06-10T13:30:38.900Z,18.6
2023-06-10T13:40:42.577Z,17.8
2023-06-10T13:42:13.844Z,17.8
2023-06-10T13:43:59.950Z,17.8
2023-06-10T13:50:46.308Z,18.9
2023-06-10T14:00:49.467Z,16.9
2023-06-10T14:10:52.424Z,19.6
2023-06-10T14:20:55.306Z,17.4
2023-06-10T14:22:14.751Z,17.4
2023-06-10T14:22:31.466Z,17.4
2023-06-10T14:23:15.325Z,17.4
2023-06-10T14:24:42.049Z,17.4
2023-06-10T14:26:15.496Z,17.4
2023-06-10T14:27:47.597Z,17.4
2023-06-10T14:30:01.788Z,17.4
2023-06-10T14:31:04.238Z,22.9
2023-06-10T14:33:57.709Z,22.9
2023-06-10T14:35:29.274Z,22.9
2023-06-10T14:38:11.708Z,22.9
2023-06-10T14:39:22.178Z,22.9
2023-06-10T14:41:00.743Z,20.1
2023-06-10T14:42:35.632Z,20.1
2023-06-10T14:46:14.887Z,20.1
2023-06-10T14:47:27.155Z,20.1
2023-06-10T14:51:03.404Z,18
2023-06-10T15:01:06.123Z,22.8
2023-06-10T15:11:08.579Z,18.8
2023-06-10T15:21:11.119Z,21.1
2023-06-10T15:31:13.804Z,19.4
2023-06-10T15:41:16.284Z,18.9
2023-06-10T15:51:18.931Z,20
2023-06-10T16:01:21.520Z,21.5
2023-06-10T16:11:24.257Z,21.8
2023-06-10T16:21:28.153Z,19.3
2023-06-10T16:31:29.589Z,23
2023-06-10T16:41:32.344Z,19.8
2023-06-10T16:51:34.949Z,22.6
2023-06-10T17:01:37.628Z,19.6
2023-06-10T17:11:40.460Z,18.6
2023-06-10T17:21:43.211Z,19.7
2023-06-10T17:31:46.061Z,19.7
2023-06-10T17:41:50.230Z,19
2023-06-10T17:51:51.664Z,18.5
2023-06-10T18:01:54.615Z,17.4
2023-06-10T18:11:57.464Z,19.3
2023-06-10T18:22:00.334Z,19
2023-06-10T18:32:04.280Z,18.5
2023-06-10T18:42:05.928Z,19.2
2023-06-10T18:52:10.061Z,18.5
2023-06-10T19:02:12.018Z,19.3
2023-06-10T19:12:14.529Z,20
2023-06-10T19:22:17.642Z,20.9
2023-06-10T19:32:20.492Z,16.9
2023-06-10T19:42:23.133Z,19.1
2023-06-10T19:52:26.171Z,17.3
2023-06-10T20:02:36.841Z,17.6
2023-06-10T20:12:31.987Z,17.9
2023-06-10T20:22:39.369Z,18.3
2023-06-10T20:32:39.808Z,19.7
2023-06-10T20:42:44.969Z,20.8
2023-06-10T20:52:43.609Z,17.6
2023-06-10T21:02:46.502Z,21
2023-06-10T21:12:49.456Z,19
2023-06-10T21:22:52.225Z,20.6
2023-06-10T21:32:55.125Z,21.9
2023-06-10T21:42:58.007Z,20.1
2023-06-10T21:53:01.688Z,22.2
2023-06-10T22:03:08.386Z,17.3
2023-06-10T22:13:06.621Z,18.5
2023-06-10T22:23:10.560Z,22.5
2023-06-10T22:33:12.530Z,19.1
2023-06-10T22:43:15.398Z,18.3
2023-06-10T22:53:18.216Z,19.3
2023-06-10T23:03:20.986Z,18.6
2023-06-10T23:13:23.709Z,21.9
2023-06-10T23:23:26.207Z,20.8
2023-06-10T23:33:29.804Z,19
2023-06-10T23:43:31.342Z,18.5
2023-06-10T23:53:33.743Z,21.1
